sensor_id;sensor_type;location;lat;lon;timestamp;pressure;altitude;pressure_sealevel;temperature;humidity
77149;BME280;66122;47.130;16.844;2023-02-15T00:06:10;101513.31;;;0.96;92.56
77149;BME280;66122;47.130;16.844;2023-02-15T00:16:13;101511.03;;;1.22;92.06
77149;BME280;66122;47.130;16.844;2023-02-15T00:26:16;101519.06;;;1.40;91.16
77149;BME280;66122;47.130;16.844;2023-02-15T00:36:19;101514.09;;;1.62;90.96
77149;BME280;66122;47.130;16.844;2023-02-15T00:46:23;101514.00;;;1.51;91.02
77149;BME280;66122;47.130;16.844;2023-02-15T00:56:26;101520.00;;;1.45;92.13
77149;BME280;66122;47.130;16.844;2023-02-15T01:06:30;101509.56;;;1.44;92.56
77149;BME280;66122;47.130;16.844;2023-02-15T01:16:33;101511.25;;;1.40;92.46
77149;BME280;66122;47.130;16.844;2023-02-15T01:26:35;101467.41;;;1.12;93.28
77149;BME280;66122;47.130;16.844;2023-02-15T01:36:40;101491.00;;;1.21;93.33
77149;BME280;66122;47.130;16.844;2023-02-15T01:46:49;101479.44;;;0.99;96.26
77149;BME280;66122;47.130;16.844;2023-02-15T01:57:03;101464.47;;;0.86;98.27
77149;BME280;66122;47.130;16.844;2023-02-15T02:07:06;101466.94;;;0.75;100.00
77149;BME280;66122;47.130;16.844;2023-02-15T02:17:37;101453.84;;;0.71;100.00
77149;BME280;66122;47.130;16.844;2023-02-15T02:48:30;101451.94;;;1.32;95.26
77149;BME280;66122;47.130;16.844;2023-02-15T02:58:46;101438.94;;;1.38;94.02
77149;BME280;66122;47.130;16.844;2023-02-15T03:08:56;101437.38;;;1.53;93.69
77149;BME280;66122;47.130;16.844;2023-02-15T03:19:05;101446.13;;;1.58;93.33
77149;BME280;66122;47.130;16.844;2023-02-15T03:29:17;101440.06;;;1.61;92.74
77149;BME280;66122;47.130;16.844;2023-02-15T03:39:54;101446.88;;;1.47;92.57
77149;BME280;66122;47.130;16.844;2023-02-15T03:50:12;101437.88;;;1.17;94.36
77149;BME280;66122;47.130;16.844;2023-02-15T04:00:37;101421.19;;;1.05;96.90
77149;BME280;66122;47.130;16.844;2023-02-15T04:11:01;101425.41;;;0.92;99.03
77149;BME280;66122;47.130;16.844;2023-02-15T04:21:04;101424.44;;;0.84;100.00
77149;BME280;66122;47.130;16.844;2023-02-15T04:31:25;101431.31;;;0.77;100.00
77149;BME280;66122;47.130;16.844;2023-02-15T04:41:28;101434.88;;;0.84;100.00
77149;BME280;66122;47.130;16.844;2023-02-15T04:51:30;101427.16;;;0.95;100.00
77149;BME280;66122;47.130;16.844;2023-02-15T05:01:33;101417.56;;;0.91;99.99
77149;BME280;66122;47.130;16.844;2023-02-15T05:11:35;101428.91;;;0.96;100.00
77149;BME280;66122;47.130;16.844;2023-02-15T05:21:38;101438.56;;;1.03;100.00
77149;BME280;66122;47.130;16.844;2023-02-15T05:31:40;101431.69;;;1.08;100.00
77149;BME280;66122;47.130;16.844;2023-02-15T05:41:43;101424.66;;;1.04;99.84
77149;BME280;66122;47.130;16.844;2023-02-15T05:51:46;101439.53;;;1.08;100.00
77149;BME280;66122;47.130;16.844;2023-02-15T06:01:48;101445.66;;;1.13;100.00
77149;BME280;66122;47.130;16.844;2023-02-15T06:11:51;101418.63;;;1.09;99.89
77149;BME280;66122;47.130;16.844;2023-02-15T06:21:53;101448.38;;;1.22;100.00
77149;BME280;66122;47.130;16.844;2023-02-15T06:31:59;101455.50;;;1.35;99.13
77149;BME280;66122;47.130;16.844;2023-02-15T06:42:01;101446.88;;;1.45;98.63
77149;BME280;66122;47.130;16.844;2023-02-15T06:52:04;101444.41;;;1.58;96.72
77149;BME280;66122;47.130;16.844;2023-02-15T07:02:09;101446.28;;;1.74;96.17
77149;BME280;66122;47.130;16.844;2023-02-15T07:12:12;101433.31;;;1.84;94.84
77149;BME280;66122;47.130;16.844;2023-02-15T07:22:34;101439.56;;;2.00;93.74
77149;BME280;66122;47.130;16.844;2023-02-15T07:32:38;101442.31;;;2.24;93.11
77149;BME280;66122;47.130;16.844;2023-02-15T07:43:00;101434.56;;;2.33;92.74
77149;BME280;66122;47.130;16.844;2023-02-15T07:53:03;101442.56;;;2.59;91.90
77149;BME280;66122;47.130;16.844;2023-02-15T08:03:06;101434.78;;;2.73;90.51
77149;BME280;66122;47.130;16.844;2023-02-15T08:13:18;101434.88;;;2.91;89.99
77149;BME280;66122;47.130;16.844;2023-02-15T08:23:20;101418.38;;;3.09;88.40
77149;BME280;66122;47.130;16.844;2023-02-15T08:33:23;101428.91;;;3.36;86.87
77149;BME280;66122;47.130;16.844;2023-02-15T08:43:26;101421.94;;;3.61;85.77
77149;BME280;66122;47.130;16.844;2023-02-15T08:53:28;101425.50;;;3.81;84.20
77149;BME280;66122;47.130;16.844;2023-02-15T09:03:31;101419.34;;;3.90;82.68
77149;BME280;66122;47.130;16.844;2023-02-15T09:13:35;101402.72;;;3.97;81.68
77149;BME280;66122;47.130;16.844;2023-02-15T09:23:37;101414.97;;;3.98;80.41
77149;BME280;66122;47.130;16.844;2023-02-15T09:33:41;101418.47;;;4.06;80.31
77149;BME280;66122;47.130;16.844;2023-02-15T09:43:51;101407.97;;;4.18;81.24
77149;BME280;66122;47.130;16.844;2023-02-15T09:54:19;101406.22;;;4.13;81.76
77149;BME280;66122;47.130;16.844;2023-02-15T10:45:31;101357.47;;;5.50;76.65
77149;BME280;66122;47.130;16.844;2023-02-15T11:06:17;101293.38;;;5.64;74.15
77149;BME280;66122;47.130;16.844;2023-02-15T11:16:26;101295.59;;;6.11;73.16
77149;BME280;66122;47.130;16.844;2023-02-15T11:26:34;101288.13;;;6.48;71.40
77149;BME280;66122;47.130;16.844;2023-02-15T11:36:40;101263.97;;;6.80;69.80
77149;BME280;66122;47.130;16.844;2023-02-15T11:46:43;101253.00;;;8.51;64.19
77149;BME280;66122;47.130;16.844;2023-02-15T11:56:46;101246.56;;;9.38;59.42
77149;BME280;66122;47.130;16.844;2023-02-15T12:06:55;101240.94;;;7.94;65.71
77149;BME280;66122;47.130;16.844;2023-02-15T12:17:12;101212.81;;;11.26;53.81
77149;BME280;66122;47.130;16.844;2023-02-15T12:27:16;101215.50;;;12.25;51.22
77149;BME280;66122;47.130;16.844;2023-02-15T12:37:23;101207.13;;;12.36;49.43
77149;BME280;66122;47.130;16.844;2023-02-15T12:47:29;101184.19;;;12.10;50.04
77149;BME280;66122;47.130;16.844;2023-02-15T12:57:33;101161.72;;;14.83;43.93
77149;BME280;66122;47.130;16.844;2023-02-15T13:07:37;101149.78;;;15.27;41.14
77149;BME280;66122;47.130;16.844;2023-02-15T13:17:40;101139.63;;;15.16;40.67
77149;BME280;66122;47.130;16.844;2023-02-15T13:27:55;101137.59;;;14.12;43.80
77149;BME280;66122;47.130;16.844;2023-02-15T13:59:27;101129.53;;;8.59;62.31
77149;BME280;66122;47.130;16.844;2023-02-15T14:20:20;101114.03;;;8.44;62.77
77149;BME280;66122;47.130;16.844;2023-02-15T14:30:30;101115.34;;;8.25;65.13
77149;BME280;66122;47.130;16.844;2023-02-15T14:51:06;101110.44;;;8.07;65.01
77149;BME280;66122;47.130;16.844;2023-02-15T15:01:10;101099.22;;;7.99;65.70
77149;BME280;66122;47.130;16.844;2023-02-15T15:11:46;101092.56;;;7.79;67.26
77149;BME280;66122;47.130;16.844;2023-02-15T15:31:53;101088.16;;;6.91;70.71
77149;BME280;66122;47.130;16.844;2023-02-15T15:42:13;101083.41;;;6.60;72.66
77149;BME280;66122;47.130;16.844;2023-02-15T15:52:21;101074.22;;;6.31;73.82
77149;BME280;66122;47.130;16.844;2023-02-15T16:02:25;101078.19;;;5.99;74.88
77149;BME280;66122;47.130;16.844;2023-02-15T16:12:30;101074.31;;;5.59;76.29
77149;BME280;66122;47.130;16.844;2023-02-15T16:22:33;101079.06;;;5.28;77.70
77149;BME280;66122;47.130;16.844;2023-02-15T16:32:36;101077.75;;;4.89;78.28
77149;BME280;66122;47.130;16.844;2023-02-15T16:42:40;101070.97;;;4.62;80.58
77149;BME280;66122;47.130;16.844;2023-02-15T16:52:43;101072.88;;;4.46;81.78
77149;BME280;66122;47.130;16.844;2023-02-15T17:02:54;101066.03;;;4.24;82.14
77149;BME280;66122;47.130;16.844;2023-02-15T17:13:12;101048.78;;;3.86;84.53
77149;BME280;66122;47.130;16.844;2023-02-15T17:23:37;101073.38;;;3.67;85.58
77149;BME280;66122;47.130;16.844;2023-02-15T17:33:43;101078.63;;;3.58;86.04
77149;BME280;66122;47.130;16.844;2023-02-15T17:43:46;101066.50;;;3.34;86.56
77149;BME280;66122;47.130;16.844;2023-02-15T17:53:48;101077.88;;;3.18;87.06
77149;BME280;66122;47.130;16.844;2023-02-15T18:04:11;101091.88;;;3.05;88.17
77149;BME280;66122;47.130;16.844;2023-02-15T18:14:37;101079.72;;;2.95;88.25
77149;BME280;66122;47.130;16.844;2023-02-15T18:24:40;101102.34;;;2.09;89.44
77149;BME280;66122;47.130;16.844;2023-02-15T18:34:43;101104.88;;;1.82;89.43
77149;BME280;66122;47.130;16.844;2023-02-15T18:44:49;101107.38;;;1.44;89.92
77149;BME280;66122;47.130;16.844;2023-02-15T18:54:59;101108.94;;;1.16;89.62
77149;BME280;66122;47.130;16.844;2023-02-15T19:05:04;101114.84;;;0.88;90.87
77149;BME280;66122;47.130;16.844;2023-02-15T19:15:14;101114.59;;;0.56;90.60
77149;BME280;66122;47.130;16.844;2023-02-15T19:25:21;101115.44;;;0.50;92.43
77149;BME280;66122;47.130;16.844;2023-02-15T19:35:28;101112.81;;;0.53;93.17
77149;BME280;66122;47.130;16.844;2023-02-15T19:45:35;101105.13;;;0.67;94.64
77149;BME280;66122;47.130;16.844;2023-02-15T19:55:39;101104.16;;;0.54;91.99
77149;BME280;66122;47.130;16.844;2023-02-15T20:05:42;101084.00;;;0.35;93.01
77149;BME280;66122;47.130;16.844;2023-02-15T20:15:47;101092.50;;;0.14;99.84
77149;BME280;66122;47.130;16.844;2023-02-15T20:25:50;101058.44;;;-0.04;98.95
77149;BME280;66122;47.130;16.844;2023-02-15T20:35:53;101079.41;;;0.07;98.38
77149;BME280;66122;47.130;16.844;2023-02-15T20:45:57;101073.53;;;0.32;94.30
77149;BME280;66122;47.130;16.844;2023-02-15T20:56:00;101062.78;;;-0.05;93.21
77149;BME280;66122;47.130;16.844;2023-02-15T21:06:03;101073.50;;;-0.54;92.58
77149;BME280;66122;47.130;16.844;2023-02-15T21:16:07;101047.56;;;-1.13;95.89
77149;BME280;66122;47.130;16.844;2023-02-15T21:26:21;101065.84;;;-1.07;100.00
77149;BME280;66122;47.130;16.844;2023-02-15T21:36:24;101065.28;;;-0.88;100.00
77149;BME280;66122;47.130;16.844;2023-02-15T21:46:27;101066.91;;;-0.96;96.07
77149;BME280;66122;47.130;16.844;2023-02-15T21:56:48;101059.84;;;-1.04;99.35
77149;BME280;66122;47.130;16.844;2023-02-15T22:06:52;101075.38;;;-1.10;95.87
77149;BME280;66122;47.130;16.844;2023-02-15T22:16:55;101071.00;;;-1.11;95.44
77149;BME280;66122;47.130;16.844;2023-02-15T22:26:58;101083.84;;;-1.24;93.61
77149;BME280;66122;47.130;16.844;2023-02-15T22:37:00;101086.28;;;-1.33;94.21
77149;BME280;66122;47.130;16.844;2023-02-15T22:47:04;101084.50;;;-1.35;96.93
77149;BME280;66122;47.130;16.844;2023-02-15T22:57:17;101068.91;;;-1.35;100.00
77149;BME280;66122;47.130;16.844;2023-02-15T23:07:21;101070.75;;;-1.28;100.00
77149;BME280;66122;47.130;16.844;2023-02-15T23:17:24;101073.50;;;-1.75;98.75
77149;BME280;66122;47.130;16.844;2023-02-15T23:27:27;101071.72;;;-1.76;99.01
77149;BME280;66122;47.130;16.844;2023-02-15T23:37:47;101068.50;;;-2.12;96.28
77149;BME280;66122;47.130;16.844;2023-02-15T23:47:51;101076.34;;;-2.09;100.00
77149;BME280;66122;47.130;16.844;2023-02-15T23:58:15;101066.72;;;-2.13;96.25
